createdAt,value
2018-10-05T00:00:53.051Z,99.90
2018-10-05T00:03:33.693Z,99.90
2018-10-05T00:06:14.329Z,99.90
2018-10-05T00:08:49.966Z,99.90
2018-10-05T00:11:18.198Z,99.90
2018-10-05T00:13:46.429Z,99.90
2018-10-05T00:16:15.671Z,99.90
2018-10-05T00:18:55.882Z,99.90
2018-10-05T00:21:36.450Z,99.90
2018-10-05T00:24:04.713Z,99.90
2018-10-05T00:26:45.815Z,99.90
2018-10-05T00:29:19.993Z,99.90
2018-10-05T00:32:01.048Z,99.90
2018-10-05T00:34:32.328Z,99.90
2018-10-05T00:37:13.440Z,99.90
2018-10-05T00:39:41.667Z,99.90
2018-10-05T00:42:22.675Z,99.90
2018-10-05T00:44:50.887Z,99.90
2018-10-05T00:47:31.934Z,99.90
2018-10-05T00:50:00.186Z,99.90
2018-10-05T00:52:28.400Z,99.90
2018-10-05T00:54:56.885Z,99.90
2018-10-05T00:57:25.070Z,99.90
2018-10-05T00:59:53.367Z,99.90
2018-10-05T01:02:21.625Z,99.90
2018-10-05T01:05:01.850Z,99.90
2018-10-05T01:07:30.097Z,99.90
2018-10-05T01:10:10.413Z,99.90
2018-10-05T01:12:51.142Z,99.90
2018-10-05T01:15:31.845Z,99.90
2018-10-05T01:18:12.528Z,99.90
2018-10-05T01:20:40.742Z,99.90
2018-10-05T01:23:21.875Z,99.90
2018-10-05T01:25:50.109Z,99.90
2018-10-05T01:28:31.100Z,99.90
2018-10-05T01:30:59.389Z,99.90
2018-10-05T01:33:39.613Z,99.90
2018-10-05T01:36:07.805Z,99.90
2018-10-05T01:38:48.865Z,99.90
2018-10-05T01:41:29.367Z,99.90
2018-10-05T01:44:09.922Z,99.90
2018-10-05T01:46:50.457Z,99.90
2018-10-05T01:49:31.161Z,99.90
2018-10-05T01:52:11.572Z,99.90
2018-10-05T01:54:52.302Z,99.90
2018-10-05T01:57:32.840Z,99.90
2018-10-05T02:00:13.462Z,99.90
2018-10-05T02:02:54.180Z,99.90
2018-10-05T02:05:22.390Z,99.90
2018-10-05T02:07:50.618Z,99.90
2018-10-05T02:10:31.098Z,99.90
2018-10-05T02:13:11.661Z,99.90
2018-10-05T02:15:39.839Z,99.90
2018-10-05T02:18:20.090Z,99.90
2018-10-05T02:21:00.601Z,99.90
2018-10-05T02:23:41.391Z,99.90
2018-10-05T02:26:22.014Z,99.90
2018-10-05T02:29:02.236Z,99.90
2018-10-05T02:31:42.810Z,99.90
2018-10-05T02:34:23.353Z,99.90
2018-10-05T02:36:57.894Z,99.90
2018-10-05T02:39:38.595Z,99.90
2018-10-05T02:42:19.277Z,99.90
2018-10-05T02:44:59.807Z,99.90
2018-10-05T02:47:40.397Z,99.90
2018-10-05T02:50:08.690Z,99.90
2018-10-05T02:52:49.723Z,99.90
2018-10-05T02:55:17.926Z,99.90
2018-10-05T02:57:59.077Z,99.90
2018-10-05T03:00:39.609Z,99.90
2018-10-05T03:03:20.134Z,99.90
2018-10-05T03:06:00.770Z,99.90
2018-10-05T03:08:28.996Z,99.90
2018-10-05T03:11:09.985Z,99.90
2018-10-05T03:13:50.469Z,99.90
2018-10-05T03:16:18.708Z,99.90
2018-10-05T03:18:59.745Z,99.90
2018-10-05T03:21:40.241Z,99.90
2018-10-05T03:24:20.827Z,99.90
2018-10-05T03:27:01.353Z,99.90
2018-10-05T03:29:29.553Z,99.90
2018-10-05T03:31:57.752Z,99.90
2018-10-05T03:34:27.022Z,99.90
2018-10-05T03:37:08.056Z,99.90
2018-10-05T03:39:48.699Z,99.90
2018-10-05T03:42:16.875Z,99.90
2018-10-05T03:44:45.076Z,99.90
2018-10-05T03:47:25.920Z,99.90
2018-10-05T03:50:06.625Z,99.90
2018-10-05T03:52:47.171Z,99.90
2018-10-05T03:55:15.375Z,99.90
2018-10-05T03:57:55.721Z,99.90
2018-10-05T04:00:36.566Z,99.90
2018-10-05T04:03:16.818Z,99.90
2018-10-05T04:05:45.047Z,99.90
2018-10-05T04:08:25.373Z,99.90
2018-10-05T04:11:05.971Z,99.90
2018-10-05T04:13:46.575Z,99.90
2018-10-05T04:16:27.133Z,99.90
2018-10-05T04:18:55.292Z,99.90
2018-10-05T04:21:36.205Z,99.90
2018-10-05T04:24:17.030Z,99.90
2018-10-05T04:26:57.663Z,99.90
2018-10-05T04:29:25.882Z,99.90
2018-10-05T04:31:54.072Z,99.90
2018-10-05T04:34:22.309Z,99.90
2018-10-05T04:36:53.341Z,99.90
2018-10-05T04:39:40.577Z,99.90
2018-10-05T04:42:20.862Z,99.90
2018-10-05T04:44:49.127Z,99.90
2018-10-05T04:47:17.425Z,99.90
2018-10-05T04:49:45.718Z,99.90
2018-10-05T04:52:26.337Z,99.90
2018-10-05T04:55:06.516Z,99.90
2018-10-05T04:57:47.191Z,99.90
2018-10-05T05:00:27.750Z,99.90
2018-10-05T05:03:08.286Z,99.90
2018-10-05T05:05:48.766Z,99.90
2018-10-05T05:08:17.008Z,99.90
2018-10-05T05:10:58.019Z,99.90
2018-10-05T05:13:26.245Z,99.90
2018-10-05T05:16:06.424Z,99.90
2018-10-05T05:18:46.966Z,99.90
2018-10-05T05:38:46.984Z,99.90
2018-10-05T05:41:15.268Z,99.90
2018-10-05T05:43:56.212Z,99.90
2018-10-05T05:46:25.518Z,99.90
2018-10-05T05:49:05.850Z,99.90
2018-10-05T05:51:46.384Z,99.90
2018-10-05T05:54:14.595Z,99.90
2018-10-05T05:56:54.925Z,99.90
2018-10-05T05:59:23.102Z,99.90
2018-10-05T06:02:03.386Z,99.90
2018-10-05T06:04:43.940Z,99.90
2018-10-05T06:07:24.686Z,99.90
2018-10-05T06:09:52.933Z,99.90
2018-10-05T06:12:21.213Z,99.90
2018-10-05T06:15:01.464Z,99.90
2018-10-05T06:17:42.098Z,99.90
2018-10-05T06:20:10.340Z,99.90
2018-10-05T06:22:50.488Z,99.90
2018-10-05T06:25:31.182Z,99.90
2018-10-05T06:28:11.818Z,99.90
2018-10-05T06:30:40.223Z,99.90
2018-10-05T06:33:20.581Z,99.90
2018-10-05T06:35:48.820Z,99.90
2018-10-05T06:38:17.082Z,99.90
2018-10-05T06:40:45.286Z,99.90
2018-10-05T06:43:26.374Z,99.90
2018-10-05T06:46:06.916Z,99.90
2018-10-05T06:48:47.880Z,99.90
2018-10-05T06:51:28.348Z,99.90
2018-10-05T06:54:09.029Z,99.90
2018-10-05T06:56:49.508Z,99.90
2018-10-05T06:59:30.187Z,99.90
2018-10-05T07:01:58.809Z,99.90
2018-10-05T07:04:27.054Z,99.90
2018-10-05T07:07:07.333Z,99.90
2018-10-05T07:09:35.603Z,99.90
2018-10-05T07:12:03.796Z,99.90
2018-10-05T07:14:31.970Z,99.90
2018-10-05T07:17:00.177Z,99.90
2018-10-05T07:19:40.437Z,99.90
2018-10-05T07:22:21.025Z,99.90
2018-10-05T07:24:49.169Z,99.90
2018-10-05T07:27:17.376Z,99.90
2018-10-05T07:29:45.599Z,99.90
2018-10-05T07:32:13.778Z,99.90
2018-10-05T07:34:54.541Z,99.90
2018-10-05T07:37:35.016Z,99.90
2018-10-05T07:40:15.650Z,99.90
2018-10-05T07:42:56.216Z,99.90
2018-10-05T07:45:36.907Z,99.90
2018-10-05T07:48:17.661Z,99.90
2018-10-05T07:50:45.877Z,99.90
2018-10-05T07:53:14.054Z,99.90
2018-10-05T07:55:54.847Z,99.90
2018-10-05T07:58:23.127Z,99.90
2018-10-05T08:01:03.369Z,99.90
2018-10-05T08:03:31.577Z,99.90
2018-10-05T08:06:12.733Z,99.90
2018-10-05T08:08:40.948Z,99.90
2018-10-05T08:11:22.034Z,99.90
2018-10-05T08:14:02.649Z,99.90
2018-10-05T08:16:43.155Z,99.90
2018-10-05T08:19:11.356Z,99.90
2018-10-05T08:21:51.683Z,99.90
2018-10-05T08:24:20.138Z,99.90
2018-10-05T08:27:01.007Z,99.90
2018-10-05T08:29:30.142Z,99.90
2018-10-05T08:32:11.085Z,99.90
2018-10-05T08:34:41.818Z,99.90
2018-10-05T08:37:22.452Z,99.90
2018-10-05T08:39:57.562Z,99.90
2018-10-05T08:42:25.788Z,99.90
2018-10-05T08:44:55.403Z,99.90
2018-10-05T08:47:36.126Z,99.90
2018-10-05T08:50:04.320Z,99.90
2018-10-05T08:52:33.129Z,99.90
2018-10-05T08:55:01.403Z,99.90
2018-10-05T08:57:29.758Z,99.90
2018-10-05T09:00:10.819Z,99.90
2018-10-05T09:02:51.405Z,99.90
2018-10-05T09:05:19.605Z,99.90
2018-10-05T09:08:08.812Z,99.90
2018-10-05T09:13:44.988Z,99.90
2018-10-05T09:16:20.436Z,99.90
2018-10-05T09:21:51.459Z,99.90
2018-10-05T09:24:32.462Z,99.90
2018-10-05T09:27:13.082Z,99.90
2018-10-05T09:29:53.789Z,99.90
2018-10-05T09:32:34.263Z,99.90
2018-10-05T09:35:02.796Z,99.90
2018-10-05T09:37:43.647Z,99.90
2018-10-05T09:40:24.234Z,99.90
2018-10-05T09:42:53.586Z,99.90
2018-10-05T09:45:34.305Z,99.90
2018-10-05T09:48:14.989Z,99.30
2018-10-05T09:50:43.391Z,99.70
2018-10-05T09:53:24.319Z,99.90
2018-10-05T09:56:04.809Z,99.90
2018-10-05T09:58:45.560Z,99.00
2018-10-05T10:01:19.244Z,99.50
2018-10-05T10:03:59.835Z,98.40
2018-10-05T10:06:40.314Z,97.60
2018-10-05T10:09:09.260Z,97.00
2018-10-05T10:11:42.183Z,96.80
2018-10-05T10:14:22.388Z,94.00
2018-10-05T10:17:03.047Z,90.30
2018-10-05T10:19:31.320Z,84.40
2018-10-05T10:22:12.511Z,69.40
2018-10-05T10:24:40.743Z,58.70
2018-10-05T10:27:22.276Z,50.10
2018-10-05T10:29:50.524Z,50.20
2018-10-05T10:32:19.730Z,41.90
2018-10-05T10:34:50.565Z,39.20
2018-10-05T10:37:18.947Z,38.20
2018-10-05T10:40:00.080Z,34.60
2018-10-05T10:42:40.674Z,33.50
2018-10-05T10:45:21.257Z,33.10
2018-10-05T10:48:01.865Z,31.40
2018-10-05T10:50:30.184Z,30.80
2018-10-05T10:53:11.152Z,30.10
2018-10-05T10:55:51.635Z,30.30
2018-10-05T10:58:32.261Z,28.70
2018-10-05T11:01:12.790Z,29.60
2018-10-05T11:03:53.372Z,28.80
2018-10-05T11:06:34.089Z,28.90
2018-10-05T11:09:14.778Z,28.40
2018-10-05T11:11:55.308Z,28.30
2018-10-05T11:14:35.860Z,27.30
2018-10-05T11:17:16.603Z,26.90
2018-10-05T11:19:57.079Z,26.90
2018-10-05T11:22:25.400Z,26.80
2018-10-05T11:24:53.776Z,26.30
2018-10-05T11:27:34.228Z,26.80
2018-10-05T11:30:14.732Z,26.50
2018-10-05T11:32:55.298Z,26.80
2018-10-05T11:35:35.969Z,27.00
2018-10-05T11:38:04.901Z,26.70
2018-10-05T11:40:33.193Z,27.40
2018-10-05T11:43:14.222Z,28.80
2018-10-05T11:45:43.443Z,29.00
2018-10-05T11:48:23.770Z,29.40
2018-10-05T11:51:04.553Z,28.90
2018-10-05T11:53:32.810Z,29.10
2018-10-05T11:56:01.041Z,29.70
2018-10-05T11:58:29.333Z,30.30
2018-10-05T12:01:10.099Z,31.20
2018-10-05T12:03:51.183Z,31.30
2018-10-05T12:06:25.248Z,32.10
2018-10-05T12:08:53.547Z,32.30
2018-10-05T12:11:21.891Z,32.50
2018-10-05T12:14:03.086Z,31.10
2018-10-05T12:16:44.257Z,31.10
2018-10-05T12:19:12.843Z,30.80
2018-10-05T12:21:42.746Z,31.50
2018-10-05T12:24:23.987Z,32.20
2018-10-05T12:27:04.671Z,32.40
2018-10-05T12:29:45.146Z,32.70
2018-10-05T12:32:14.809Z,33.00
2018-10-05T12:34:43.699Z,33.10
2018-10-05T12:37:24.179Z,33.20
2018-10-05T12:40:04.850Z,33.50
2018-10-05T12:42:33.160Z,32.90
2018-10-05T12:45:03.947Z,32.80
2018-10-05T12:47:34.115Z,33.40
2018-10-05T12:50:14.749Z,34.10
2018-10-05T12:52:55.349Z,34.10
2018-10-05T12:55:25.451Z,33.00
2018-10-05T12:57:53.762Z,32.90
2018-10-05T13:00:22.073Z,32.30
2018-10-05T13:02:50.350Z,32.90
2018-10-05T13:05:22.624Z,33.80
2018-10-05T13:08:03.014Z,35.00
2018-10-05T13:10:43.599Z,34.20
2018-10-05T13:13:25.562Z,34.40
2018-10-05T13:15:53.853Z,34.70
2018-10-05T13:18:22.130Z,35.00
2018-10-05T13:21:03.326Z,35.00
2018-10-05T13:23:31.590Z,35.10
2018-10-05T13:25:59.943Z,35.40
2018-10-05T13:28:41.039Z,35.60
2018-10-05T13:31:09.203Z,34.30
2018-10-05T13:33:50.383Z,35.30
2018-10-05T13:36:30.683Z,36.60
2018-10-05T13:39:11.933Z,37.70
2018-10-05T13:41:52.876Z,38.20
2018-10-05T13:44:33.346Z,38.90
2018-10-05T13:47:01.630Z,39.30
2018-10-05T13:49:42.498Z,41.50
2018-10-05T13:52:23.640Z,40.60
2018-10-05T13:55:04.652Z,39.60
2018-10-05T13:57:45.267Z,39.10
2018-10-05T14:00:14.414Z,38.80
2018-10-05T14:02:55.509Z,38.80
2018-10-05T14:05:36.109Z,37.50
2018-10-05T14:08:16.753Z,33.90
2018-10-05T14:10:57.272Z,31.90
2018-10-05T14:13:25.577Z,30.50
2018-10-05T14:15:55.258Z,29.80
2018-10-05T14:18:36.298Z,30.60
2018-10-05T14:21:04.582Z,31.40
2018-10-05T14:23:45.614Z,33.00
2018-10-05T14:26:14.438Z,33.70
2018-10-05T14:28:44.197Z,32.60
2018-10-05T14:31:24.597Z,31.90
2018-10-05T14:33:57.893Z,32.20
2018-10-05T14:36:26.078Z,32.10
2018-10-05T14:38:54.389Z,33.10
2018-10-05T14:41:27.074Z,33.50
2018-10-05T14:44:02.526Z,34.00
2018-10-05T14:46:31.293Z,35.40
2018-10-05T14:49:12.302Z,36.60
2018-10-05T14:51:40.517Z,38.30
2018-10-05T14:54:21.385Z,39.60
2018-10-05T14:57:01.971Z,40.50
2018-10-05T14:59:42.453Z,41.80
2018-10-05T15:02:10.722Z,42.60
2018-10-05T15:04:51.702Z,43.00
2018-10-05T15:07:32.329Z,43.10
2018-10-05T15:10:12.991Z,43.60
2018-10-05T15:12:41.423Z,42.80
2018-10-05T15:15:22.700Z,43.50
2018-10-05T15:17:57.975Z,44.30
2018-10-05T15:20:28.069Z,45.70
2018-10-05T15:22:56.329Z,46.20
2018-10-05T15:25:24.632Z,46.30
2018-10-05T15:28:05.445Z,47.50
2018-10-05T15:30:46.033Z,47.90
2018-10-05T15:33:14.333Z,48.30
2018-10-05T15:35:43.981Z,50.10
2018-10-05T15:38:12.324Z,49.10
2018-10-05T15:40:40.595Z,49.00
2018-10-05T15:43:08.904Z,50.50
2018-10-05T15:45:49.178Z,50.90
2018-10-05T15:48:17.443Z,50.00
2018-10-05T15:50:58.448Z,50.60
2018-10-05T15:53:39.259Z,50.70
2018-10-05T15:56:19.717Z,51.10
2018-10-05T15:59:00.409Z,51.10
2018-10-05T16:01:28.637Z,52.10
2018-10-05T16:04:09.703Z,52.40
2018-10-05T16:06:38.040Z,52.90
2018-10-05T16:09:19.453Z,52.60
2018-10-05T16:11:47.755Z,52.80
2018-10-05T16:14:28.312Z,52.90
2018-10-05T16:17:09.176Z,53.20
2018-10-05T16:19:37.439Z,53.80
2018-10-05T16:22:18.191Z,54.40
2018-10-05T16:24:58.643Z,54.60
2018-10-05T16:27:39.375Z,54.50
2018-10-05T16:30:19.849Z,55.10
2018-10-05T16:33:00.376Z,55.80
2018-10-05T16:35:41.162Z,56.00
2018-10-05T16:38:21.561Z,55.60
2018-10-05T16:40:49.813Z,55.00
2018-10-05T16:43:18.256Z,55.50
2018-10-05T16:45:46.597Z,56.50
2018-10-05T16:48:24.783Z,57.00
2018-10-05T16:51:05.871Z,56.60
2018-10-05T16:53:36.240Z,56.90
2018-10-05T16:56:17.018Z,56.30
2018-10-05T16:58:57.578Z,57.40
2018-10-05T17:01:38.410Z,58.00
2018-10-05T17:04:18.851Z,58.60
2018-10-05T17:06:59.567Z,58.40
2018-10-05T17:09:40.006Z,58.60
2018-10-05T17:12:08.354Z,58.80
2018-10-05T17:14:49.364Z,59.00
2018-10-05T17:17:17.770Z,59.60
2018-10-05T17:19:58.648Z,59.50
2018-10-05T17:22:26.893Z,59.70
2018-10-05T17:25:07.781Z,60.00
2018-10-05T17:27:48.301Z,60.30
2018-10-05T17:30:16.607Z,60.70
2018-10-05T17:32:57.430Z,61.20
2018-10-05T17:35:27.594Z,61.90
2018-10-05T17:38:08.754Z,62.50
2018-10-05T17:40:36.972Z,63.00
2018-10-05T17:43:06.492Z,63.30
2018-10-05T17:45:35.623Z,64.10
2018-10-05T17:48:03.881Z,64.60
2018-10-05T17:50:32.188Z,65.20
2018-10-05T17:53:12.616Z,65.50
2018-10-05T17:55:40.923Z,66.40
2018-10-05T17:58:21.760Z,67.40
2018-10-05T18:01:02.355Z,68.10
2018-10-05T18:03:42.992Z,68.70
2018-10-05T18:06:11.390Z,69.70
2018-10-05T18:08:52.318Z,70.80
2018-10-05T18:11:20.540Z,71.80
2018-10-05T18:14:00.680Z,72.70
2018-10-05T18:16:41.191Z,74.30
2018-10-05T18:19:21.780Z,74.90
2018-10-05T18:22:02.339Z,76.30
2018-10-05T18:24:30.737Z,77.60
2018-10-05T18:27:11.721Z,78.80
2018-10-05T18:29:52.411Z,80.60
2018-10-05T18:32:32.869Z,82.00
2018-10-05T18:35:13.474Z,83.30
2018-10-05T18:37:54.128Z,84.60
2018-10-05T18:40:22.848Z,86.10
2018-10-05T18:43:03.412Z,87.80
2018-10-05T18:45:43.999Z,89.10
2018-10-05T18:48:24.799Z,90.40
2018-10-05T18:51:05.208Z,91.10
2018-10-05T18:53:33.891Z,91.90
2018-10-05T18:56:09.258Z,92.40
2018-10-05T18:58:49.704Z,93.10
2018-10-05T19:01:30.003Z,93.70
2018-10-05T19:04:10.495Z,94.20
2018-10-05T19:06:42.419Z,94.70
2018-10-05T19:09:10.721Z,95.10
2018-10-05T19:11:51.564Z,95.60
2018-10-05T19:14:32.381Z,95.90
2018-10-05T19:17:12.837Z,96.30
2018-10-05T19:19:53.374Z,96.90
2018-10-05T19:22:21.660Z,97.30
2018-10-05T19:25:02.601Z,97.50
2018-10-05T19:27:43.216Z,98.00
2018-10-05T19:30:23.906Z,98.30
2018-10-05T19:33:04.477Z,98.60
2018-10-05T19:35:45.252Z,99.00
2018-10-05T19:38:25.499Z,99.30
2018-10-05T19:40:53.838Z,99.60
2018-10-05T19:43:34.838Z,99.90
2018-10-05T19:46:03.083Z,99.90
2018-10-05T19:48:31.389Z,99.90
2018-10-05T19:51:12.229Z,99.90
2018-10-05T19:53:52.814Z,99.90
2018-10-05T19:56:33.265Z,99.90
2018-10-05T19:59:01.678Z,99.90
2018-10-05T20:01:29.911Z,99.90
2018-10-05T20:04:10.508Z,99.90
2018-10-05T20:06:39.531Z,99.90
2018-10-05T20:09:08.353Z,99.90
2018-10-05T20:11:36.747Z,99.90
2018-10-05T20:14:05.193Z,99.90
2018-10-05T20:16:46.074Z,99.90
2018-10-05T20:19:17.612Z,99.90
2018-10-05T20:21:58.175Z,99.90
2018-10-05T20:24:38.801Z,99.90
2018-10-05T20:27:19.549Z,99.90
2018-10-05T20:30:00.077Z,99.90
2018-10-05T20:32:28.429Z,99.90
2018-10-05T20:34:56.805Z,99.90
2018-10-05T20:37:37.258Z,99.90
2018-10-05T20:40:17.785Z,99.90
2018-10-05T20:42:46.158Z,99.90
2018-10-05T20:45:14.432Z,99.90
2018-10-05T20:47:45.035Z,99.90
2018-10-05T20:50:25.289Z,99.90
2018-10-05T20:52:53.812Z,99.90
2018-10-05T20:55:35.929Z,99.90
2018-10-05T20:58:04.738Z,99.90
2018-10-05T21:00:44.888Z,99.90
2018-10-05T21:03:14.125Z,99.90
2018-10-05T21:05:55.077Z,99.90
2018-10-05T21:08:23.458Z,99.90
2018-10-05T21:10:51.705Z,99.90
2018-10-05T21:13:32.254Z,99.90
2018-10-05T21:16:12.914Z,99.90
2018-10-05T21:18:53.524Z,99.90
2018-10-05T21:21:34.857Z,99.90
2018-10-05T21:24:03.112Z,99.90
2018-10-05T21:26:44.101Z,99.90
2018-10-05T21:29:12.333Z,99.90
2018-10-05T21:31:53.364Z,99.90
2018-10-05T21:34:23.616Z,99.90
2018-10-05T21:37:04.620Z,99.90
2018-10-05T21:39:45.125Z,99.90
2018-10-05T21:42:25.733Z,99.90
2018-10-05T21:44:54.086Z,99.90
2018-10-05T21:47:23.441Z,99.90
2018-10-05T21:50:03.712Z,99.90
2018-10-05T21:52:44.467Z,99.90
2018-10-05T21:55:12.972Z,99.90
2018-10-05T21:57:53.406Z,99.90
2018-10-05T22:00:21.747Z,99.90
2018-10-05T22:03:02.676Z,99.90
2018-10-05T22:05:31.255Z,99.90
2018-10-05T22:07:59.694Z,99.90
2018-10-05T22:10:40.461Z,99.90
2018-10-05T22:13:21.006Z,99.90
2018-10-05T22:15:50.354Z,99.90
2018-10-05T22:18:31.412Z,99.90
2018-10-05T22:21:00.809Z,99.90
2018-10-05T22:23:29.181Z,99.90
2018-10-05T22:26:09.503Z,99.90
2018-10-05T22:28:37.866Z,99.90
2018-10-05T22:31:19.013Z,99.90
2018-10-05T22:33:48.080Z,99.90
2018-10-05T22:36:17.380Z,99.90
2018-10-05T22:38:57.651Z,99.90
2018-10-05T22:41:38.328Z,99.90
2018-10-05T22:44:18.745Z,99.90
2018-10-05T22:46:47.016Z,99.90
2018-10-05T22:49:28.154Z,99.90
2018-10-05T22:52:08.871Z,99.90
2018-10-05T22:54:37.079Z,99.90
2018-10-05T22:57:05.371Z,99.90
2018-10-05T22:59:45.872Z,99.90
2018-10-05T23:19:33.043Z,99.90
2018-10-05T23:22:13.439Z,99.90
2018-10-05T23:24:42.092Z,99.90
2018-10-05T23:27:22.763Z,99.90
2018-10-05T23:30:03.382Z,99.90
2018-10-05T23:32:43.976Z,99.90
2018-10-05T23:35:24.504Z,99.90
2018-10-05T23:38:05.027Z,99.90
2018-10-05T23:40:45.708Z,99.90
2018-10-05T23:43:26.168Z,99.90
2018-10-05T23:46:06.765Z,99.90
2018-10-05T23:48:35.108Z,99.90
2018-10-05T23:51:16.207Z,99.90
2018-10-05T23:53:44.616Z,99.90
2018-10-05T23:56:25.603Z,99.90
2018-10-05T23:58:53.841Z,99.90
